Nichioh Maru — JD3267 — position and weather

sailwx.info

Track history (hours):
 
Tides and Currents Weather Stations Pressure Air Temp Water Temp Dewpoint Dewpoint Depression Visibility Wind Speed Wind Dir Waves Ship Positions

Nichioh Maru

Last reported at 2014-Sep-02 18:31 UTC. Time now 2014-Sep-02 19:14 UTC.
Position N 34°20' E 132°22'.

Length 170 m; draft 6.5 m.

Type: Cargo ship. MMSI: 431003232.

Date/timePositionNaut miles runAvg speedWind from/ knotsBaromVisibWave heightAir tempDewpointWater temp
2014-Sep-02 18:31N 34°20' E 132°22'0 0.0
2014-Sep-02 17:31N 34°20' E 132°22'0 0.0
2014-Sep-02 16:31N 34°20' E 132°22'0 0.0
2014-Sep-02 15:31N 34°20' E 132°22'0 0.0
2014-Sep-02 14:31N 34°20' E 132°22'5 5.7
2014-Sep-02 13:33N 34°15' E 132°21'1717.2
2014-Sep-02 12:34N 34°04' E 132°37'122 3.7
2014-Sep-01 03:33N 34°37' E 134°59'1312.6
2014-Sep-01 02:33N 34°41' E 135°14'0 0.1
2014-Sep-01 01:33N 34°41' E 135°13'0 0.0
2014-Sep-01 00:33N 34°41' E 135°13'0 0.0
2014-Aug-31 23:33N 34°41' E 135°13'3 2.8
2014-Aug-31 22:33N 34°39' E 135°16'1919.0
2014-Aug-31 21:33N 34°23' E 135°03'1918.9
2014-Aug-31 20:33N 34°04' E 135°00'173 7.5
2014-Aug-30 21:28N 34°32' E 138°27'4814.1
2014-Aug-30 18:04N 34°53' E 139°20'714.1
2014-Aug-30 17:33N 34°57' E 139°27'1515.0
2014-Aug-30 16:34N 35°06' E 139°41'1312.7
2014-Aug-30 15:34N 35°19' E 139°43'1211.1
2014-Aug-30 14:31N 35°30' E 139°46'0 0.0
2014-Aug-30 13:31N 35°30' E 139°46'0 0.0
2014-Aug-30 12:31N 35°30' E 139°46'0 0.0
2014-Aug-30 11:31N 35°30' E 139°46'0 0.0
2014-Aug-30 10:31N 35°30' E 139°46'0 0.0
2014-Aug-30 09:31N 35°30' E 139°46'0 0.0
2014-Aug-30 08:31N 35°30' E 139°46'0 0.0
2014-Aug-30 07:31N 35°30' E 139°46'0 0.0
2014-Aug-30 06:28N 35°30' E 139°46'0 0.0
2014-Aug-30 05:31N 35°30' E 139°46'2 1.9
2014-Aug-30 04:34N 35°30' E 139°44'1110.6
2014-Aug-30 03:33N 35°19' E 139°43'4 3.6
2014-Aug-30 02:33N 35°19' E 139°39'0 0.0
2014-Aug-30 01:33N 35°19' E 139°39'0 0.0
2014-Aug-30 00:33N 35°19' E 139°39'0 0.0
2014-Aug-29 23:33N 35°19' E 139°39'0 0.0
2014-Aug-29 22:33N 35°19' E 139°39'8 8.4
2014-Aug-29 21:33N 35°13' E 139°47'1717.1
2014-Aug-29 20:33N 34°59' E 139°36'23615.7
2014-Aug-29 05:33N 34°00' E 134°58'2020.3
2014-Aug-29 04:33N 34°20' E 134°60'1919.6
2014-Aug-29 03:33N 34°36' E 135°14'5 4.2
2014-Aug-29 02:25N 34°41' E 135°13'0 0.0
2014-Aug-29 01:31N 34°41' E 135°13'0 0.0
2014-Aug-29 00:31N 34°41' E 135°13'0 0.0
2014-Aug-28 23:31N 34°41' E 135°13'1 1.2
2014-Aug-28 22:33N 34°40' E 135°15'4 3.5
2014-Aug-28 21:24N 34°37' E 135°17'0 0.0
2014-Aug-28 20:24N 34°37' E 135°17'0 0.1
2014-Aug-28 19:30N 34°37' E 135°17'0 0.0
2014-Aug-28 18:30N 34°37' E 135°17'0 0.0
2014-Aug-28 17:30N 34°37' E 135°17'0 0.0
2014-Aug-28 16:30N 34°37' E 135°17'0 0.0
2014-Aug-28 15:30N 34°37' E 135°17'0 0.0
2014-Aug-28 14:30N 34°37' E 135°17'0 0.0
2014-Aug-28 13:24N 34°37' E 135°17'0 0.0
2014-Aug-28 12:30N 34°37' E 135°17'1414.5
2014-Aug-28 11:32N 34°37' E 134°60'  
2014-Aug-25 03:31N 34°35' E 134°53'1817.0
2014-Aug-25 02:29N 34°37' E 135°14'3 3.4
2014-Aug-25 01:29N 34°41' E 135°13'0 0.0
2014-Aug-25 00:29N 34°41' E 135°13'0 0.0
2014-Aug-24 23:33N 34°41' E 135°13'10 9.7
2014-Aug-24 22:33N 34°31' E 135°11'2020.5
2014-Aug-24 21:33N 34°13' E 134°60'  
Track history (hours):
 
Tides and Currents Weather Stations Pressure Air Temp Water Temp Dewpoint Dewpoint Depression Visibility Wind Speed Wind Dir Waves Ship Positions

Nichioh Maru

Last reported at 2014-Sep-02 18:31 UTC. Time now 2014-Sep-02 19:14 UTC.
Position N 34°20' E 132°22'.

Length 170 m; draft 6.5 m.

Type: Cargo ship. MMSI: 431003232.

Date/timePositionNaut miles runAvg speedWind from/ knotsBaromVisibWave heightAir tempDewpointWater temp
2014-Sep-02 18:31N 34°20' E 132°22'0 0.0
2014-Sep-02 17:31N 34°20' E 132°22'0 0.0
2014-Sep-02 16:31N 34°20' E 132°22'0 0.0
2014-Sep-02 15:31N 34°20' E 132°22'0 0.0
2014-Sep-02 14:31N 34°20' E 132°22'5 5.7
2014-Sep-02 13:33N 34°15' E 132°21'1717.2
2014-Sep-02 12:34N 34°04' E 132°37'122 3.7
2014-Sep-01 03:33N 34°37' E 134°59'1312.6
2014-Sep-01 02:33N 34°41' E 135°14'0 0.1
2014-Sep-01 01:33N 34°41' E 135°13'0 0.0
2014-Sep-01 00:33N 34°41' E 135°13'0 0.0
2014-Aug-31 23:33N 34°41' E 135°13'3 2.8
2014-Aug-31 22:33N 34°39' E 135°16'1919.0
2014-Aug-31 21:33N 34°23' E 135°03'1918.9
2014-Aug-31 20:33N 34°04' E 135°00'173 7.5
2014-Aug-30 21:28N 34°32' E 138°27'4814.1
2014-Aug-30 18:04N 34°53' E 139°20'714.1
2014-Aug-30 17:33N 34°57' E 139°27'1515.0
2014-Aug-30 16:34N 35°06' E 139°41'1312.7
2014-Aug-30 15:34N 35°19' E 139°43'1211.1
2014-Aug-30 14:31N 35°30' E 139°46'0 0.0
2014-Aug-30 13:31N 35°30' E 139°46'0 0.0
2014-Aug-30 12:31N 35°30' E 139°46'0 0.0
2014-Aug-30 11:31N 35°30' E 139°46'0 0.0
2014-Aug-30 10:31N 35°30' E 139°46'0 0.0
2014-Aug-30 09:31N 35°30' E 139°46'0 0.0
2014-Aug-30 08:31N 35°30' E 139°46'0 0.0
2014-Aug-30 07:31N 35°30' E 139°46'0 0.0
2014-Aug-30 06:28N 35°30' E 139°46'0 0.0
2014-Aug-30 05:31N 35°30' E 139°46'2 1.9
2014-Aug-30 04:34N 35°30' E 139°44'1110.6
2014-Aug-30 03:33N 35°19' E 139°43'4 3.6
2014-Aug-30 02:33N 35°19' E 139°39'0 0.0
2014-Aug-30 01:33N 35°19' E 139°39'0 0.0
2014-Aug-30 00:33N 35°19' E 139°39'0 0.0
2014-Aug-29 23:33N 35°19' E 139°39'0 0.0
2014-Aug-29 22:33N 35°19' E 139°39'8 8.4
2014-Aug-29 21:33N 35°13' E 139°47'1717.1
2014-Aug-29 20:33N 34°59' E 139°36'23615.7
2014-Aug-29 05:33N 34°00' E 134°58'2020.3
2014-Aug-29 04:33N 34°20' E 134°60'1919.6
2014-Aug-29 03:33N 34°36' E 135°14'5 4.2
2014-Aug-29 02:25N 34°41' E 135°13'0 0.0
2014-Aug-29 01:31N 34°41' E 135°13'0 0.0
2014-Aug-29 00:31N 34°41' E 135°13'0 0.0
2014-Aug-28 23:31N 34°41' E 135°13'1 1.2
2014-Aug-28 22:33N 34°40' E 135°15'4 3.5
2014-Aug-28 21:24N 34°37' E 135°17'0 0.0
2014-Aug-28 20:24N 34°37' E 135°17'0 0.1
2014-Aug-28 19:30N 34°37' E 135°17'0 0.0
2014-Aug-28 18:30N 34°37' E 135°17'0 0.0
2014-Aug-28 17:30N 34°37' E 135°17'0 0.0
2014-Aug-28 16:30N 34°37' E 135°17'0 0.0
2014-Aug-28 15:30N 34°37' E 135°17'0 0.0
2014-Aug-28 14:30N 34°37' E 135°17'0 0.0
2014-Aug-28 13:24N 34°37' E 135°17'0 0.0
2014-Aug-28 12:30N 34°37' E 135°17'1414.5
2014-Aug-28 11:32N 34°37' E 134°60'  
2014-Aug-25 03:31N 34°35' E 134°53'1817.0
2014-Aug-25 02:29N 34°37' E 135°14'3 3.4
2014-Aug-25 01:29N 34°41' E 135°13'0 0.0
2014-Aug-25 00:29N 34°41' E 135°13'0 0.0
2014-Aug-24 23:33N 34°41' E 135°13'10 9.7
2014-Aug-24 22:33N 34°31' E 135°11'2020.5
2014-Aug-24 21:33N 34°13' E 134°60'  

Dump ship's entire track history